Dennis J. Pasentine — WDF2813 — position and weather

sailwx.info

Track history (hours):
 
Tides and Currents Weather Stations Pressure Air Temp Water Temp Dewpoint Dewpoint Depression Visibility Wind Speed Wind Dir Waves Ship Positions

Dennis J. Pasentine

Owner: Florida Marine Transporters, Inc., Mandeville, LA. More information available from US FCC via Universal Licensing System and Coast Guard Vessel Documentation Center.

Last reported at 2018-Apr-19 20:11 UTC. Time now 2018-Apr-22 06:44 UTC.
Position N 32°36' W 091°08'.

Length 42 m; draft 3.2 m.

Type: Ship (hazmat cat A). MMSI: 367432180.

Date/timePositionNaut miles runAvg speedWind from/ knotsBaromVisibWave heightAir tempDewpointWater temp
2018-Apr-19 20:11N 32°36' W 091°08'1 4.9
2018-Apr-19 20:00N 32°35' W 091°07'2 4.4
2018-Apr-19 19:30N 32°33' W 091°07'3 4.9
2018-Apr-19 18:59N 32°31' W 091°07'2 4.3
2018-Apr-19 18:26N 32°28' W 091°06'2 4.6
2018-Apr-19 18:00N 32°27' W 091°04'2 4.5
2018-Apr-19 17:30N 32°26' W 091°02'2 3.7
2018-Apr-19 17:00N 32°25' W 091°00'2 4.8
2018-Apr-19 16:30N 32°23' W 091°00'2 4.2
2018-Apr-19 16:00N 32°21' W 090°58'3 5.6
2018-Apr-19 15:30N 32°20' W 090°55'2 3.1
2018-Apr-19 15:00N 32°19' W 090°55'2 5.0
2018-Apr-19 14:30N 32°17' W 090°57'2 3.8
2018-Apr-19 14:00N 32°15' W 090°58'2 4.5
2018-Apr-19 13:29N 32°13' W 090°59'2 4.7
2018-Apr-19 13:00N 32°11' W 090°60'2 4.5
2018-Apr-19 12:30N 32°09' W 091°00'2 3.8
2018-Apr-19 12:00N 32°08' W 091°02'2 3.9
2018-Apr-19 11:30N 32°08' W 091°04'2 3.6
2018-Apr-19 11:00N 32°07' W 091°06'2 3.9
2018-Apr-19 10:23N 32°05' W 091°04'2 4.6
2018-Apr-19 10:00N 32°03' W 091°03'2 3.3
2018-Apr-19 09:30N 32°02' W 091°04'  
2018-Apr-16 12:59N 30°02' W 090°36'  
Track history (hours):
 
Tides and Currents Weather Stations Pressure Air Temp Water Temp Dewpoint Dewpoint Depression Visibility Wind Speed Wind Dir Waves Ship Positions

Dennis J. Pasentine

Owner: Florida Marine Transporters, Inc., Mandeville, LA. More information available from US FCC via Universal Licensing System and Coast Guard Vessel Documentation Center.

Last reported at 2018-Apr-19 20:11 UTC. Time now 2018-Apr-22 06:44 UTC.
Position N 32°36' W 091°08'.

Length 42 m; draft 3.2 m.

Type: Ship (hazmat cat A). MMSI: 367432180.

Date/timePositionNaut miles runAvg speedWind from/ knotsBaromVisibWave heightAir tempDewpointWater temp
2018-Apr-19 20:11N 32°36' W 091°08'1 4.9
2018-Apr-19 20:00N 32°35' W 091°07'2 4.4
2018-Apr-19 19:30N 32°33' W 091°07'3 4.9
2018-Apr-19 18:59N 32°31' W 091°07'2 4.3
2018-Apr-19 18:26N 32°28' W 091°06'2 4.6
2018-Apr-19 18:00N 32°27' W 091°04'2 4.5
2018-Apr-19 17:30N 32°26' W 091°02'2 3.7
2018-Apr-19 17:00N 32°25' W 091°00'2 4.8
2018-Apr-19 16:30N 32°23' W 091°00'2 4.2
2018-Apr-19 16:00N 32°21' W 090°58'3 5.6
2018-Apr-19 15:30N 32°20' W 090°55'2 3.1
2018-Apr-19 15:00N 32°19' W 090°55'2 5.0
2018-Apr-19 14:30N 32°17' W 090°57'2 3.8
2018-Apr-19 14:00N 32°15' W 090°58'2 4.5
2018-Apr-19 13:29N 32°13' W 090°59'2 4.7
2018-Apr-19 13:00N 32°11' W 090°60'2 4.5
2018-Apr-19 12:30N 32°09' W 091°00'2 3.8
2018-Apr-19 12:00N 32°08' W 091°02'2 3.9
2018-Apr-19 11:30N 32°08' W 091°04'2 3.6
2018-Apr-19 11:00N 32°07' W 091°06'2 3.9
2018-Apr-19 10:23N 32°05' W 091°04'2 4.6
2018-Apr-19 10:00N 32°03' W 091°03'2 3.3
2018-Apr-19 09:30N 32°02' W 091°04'  
2018-Apr-16 12:59N 30°02' W 090°36'  

Dump ship's entire track history